Time;durP1;ratioP1;P1;durP2;ratioP2;P2;SDS_P1;SDS_P2;PMS_P1;PMS_P2;Temp;Humidity;BMP_temperature;BMP_pressure;BME280_temperature;BME280_humidity;BME280_pressure;Samples;Min_cycle;Max_cycle;Signal;HPM_P1;HPM_P2
2021/11/09 00:00:24;;;;;;;28.08;7.90;;;9.90;99.90;;;;;;5106195;28;20417;-73
2021/11/09 00:02:51;;;;;;;31.03;8.37;;;9.90;99.90;;;;;;5102840;28;20416;-73
2021/11/09 00:05:20;;;;;;;28.75;7.63;;;9.90;99.90;;;;;;5099475;28;20431;-73
2021/11/09 00:07:49;;;;;;;28.80;8.00;;;9.80;99.90;;;;;;5097743;28;20404;-72
2021/11/09 00:10:15;;;;;;;30.23;7.65;;;9.80;99.90;;;;;;5096103;28;20408;-73
2021/11/09 00:12:53;;;;;;;29.63;7.50;;;9.80;99.90;;;;;;5102619;28;20426;-72
2021/11/09 00:15:22;;;;;;;31.63;8.05;;;9.90;99.90;;;;;;5104663;28;20416;-73
2021/11/09 00:17:50;;;;;;;30.88;8.15;;;9.80;99.90;;;;;;5098041;28;20418;-73
2021/11/09 00:20:18;;;;;;;28.17;7.78;;;9.80;99.90;;;;;;5104164;28;20503;-70
2021/11/09 00:22:46;;;;;;;30.00;7.53;;;9.80;99.90;;;;;;5101661;28;20403;-71
2021/11/09 00:25:13;;;;;;;34.40;7.60;;;9.80;99.90;;;;;;5082236;28;20408;-72
2021/11/09 00:27:39;;;;;;;32.15;7.65;;;9.80;99.90;;;;;;5103488;28;20412;-72
2021/11/09 00:30:08;;;;;;;32.63;7.07;;;9.80;99.90;;;;;;5101977;28;20408;-72
2021/11/09 00:32:34;;;;;;;31.52;7.60;;;9.80;99.90;;;;;;5068735;28;20782;-73
2021/11/09 00:35:00;;;;;;;31.38;7.72;;;9.80;99.90;;;;;;5104907;28;20416;-73
2021/11/09 00:37:26;;;;;;;31.10;8.03;;;9.80;99.90;;;;;;5103264;28;20473;-72
2021/11/09 00:39:51;;;;;;;27.92;7.40;;;9.70;99.90;;;;;;5101303;28;20515;-71
2021/11/09 00:42:18;;;;;;;32.00;7.75;;;9.70;99.90;;;;;;5101925;28;20514;-70
2021/11/09 00:44:43;;;;;;;26.37;6.93;;;9.70;99.90;;;;;;5087219;28;20431;-73
2021/11/09 00:47:09;;;;;;;35.75;7.70;;;9.70;99.90;;;;;;5099273;28;20444;-73
2021/11/09 00:49:35;;;;;;;34.93;7.90;;;9.70;99.90;;;;;;5082588;28;20752;-72
2021/11/09 00:52:01;;;;;;;29.85;7.57;;;9.70;99.90;;;;;;5076006;28;20412;-71
2021/11/09 00:54:27;;;;;;;29.10;7.72;;;9.60;99.90;;;;;;5085355;28;20511;-72
2021/11/09 00:56:53;;;;;;;32.58;7.43;;;9.70;99.90;;;;;;5102561;28;20411;-73
2021/11/09 00:59:19;;;;;;;30.63;7.73;;;9.70;99.90;;;;;;5103524;28;20425;-73
2021/11/09 01:01:44;;;;;;;26.05;7.40;;;9.70;99.90;;;;;;5100921;28;20417;-73
2021/11/09 01:04:10;;;;;;;31.53;7.50;;;9.60;99.90;;;;;;5086670;28;21869;-73
2021/11/09 01:06:36;;;;;;;29.88;7.28;;;9.60;99.90;;;;;;5102630;28;20446;-71
2021/11/09 01:09:04;;;;;;;33.88;8.25;;;9.60;99.90;;;;;;5098189;28;20404;-73
2021/11/09 01:11:31;;;;;;;36.03;8.07;;;9.60;99.90;;;;;;5098721;28;20506;-72
2021/11/09 01:13:57;;;;;;;30.90;7.50;;;9.60;99.90;;;;;;5103414;28;20400;-73
2021/11/09 01:16:23;;;;;;;31.10;7.77;;;9.50;99.90;;;;;;5092124;28;20417;-71
2021/11/09 01:18:52;;;;;;;33.67;7.78;;;9.50;99.90;;;;;;5105832;28;20541;-72
2021/11/09 01:21:19;;;;;;;32.45;8.25;;;9.50;99.90;;;;;;5098611;28;20449;-74
2021/11/09 01:23:47;;;;;;;29.10;7.33;;;9.50;99.90;;;;;;5098286;28;20419;-71
2021/11/09 01:26:14;;;;;;;32.60;7.70;;;9.40;99.90;;;;;;5102665;28;20412;-73
2021/11/09 01:28:41;;;;;;;30.95;7.70;;;9.50;99.90;;;;;;5104354;28;20418;-73
2021/11/09 01:31:08;;;;;;;30.70;7.55;;;9.50;99.90;;;;;;5103374;28;20752;-71
2021/11/09 01:33:35;;;;;;;33.47;7.70;;;9.50;99.90;;;;;;5100364;28;20427;-72
2021/11/09 01:36:01;;;;;;;29.05;7.43;;;9.40;99.90;;;;;;5096001;28;20409;-73
2021/11/09 01:38:27;;;;;;;30.98;7.78;;;9.40;99.90;;;;;;5070422;28;20507;-72
2021/11/09 01:40:54;;;;;;;30.10;7.47;;;9.50;99.90;;;;;;5099358;28;20452;-73
2021/11/09 01:43:22;;;;;;;31.08;7.72;;;9.50;99.90;;;;;;5101171;28;20464;-72
2021/11/09 01:45:49;;;;;;;32.10;7.70;;;9.50;99.90;;;;;;5095752;28;20426;-73
2021/11/09 01:48:16;;;;;;;34.95;7.85;;;9.50;99.90;;;;;;5096520;28;20418;-71
2021/11/09 01:50:46;;;;;;;30.65;8.07;;;9.50;99.90;;;;;;5086507;28;20867;-75
2021/11/09 01:53:12;;;;;;;31.15;7.88;;;9.50;99.90;;;;;;5096631;28;20444;-73
2021/11/09 01:55:39;;;;;;;29.20;7.95;;;9.50;99.90;;;;;;5082560;28;20452;-74
2021/11/09 01:58:06;;;;;;;32.35;8.10;;;9.50;99.90;;;;;;5084231;28;20411;-72
2021/11/09 02:00:40;;;;;;;30.45;8.02;;;9.40;99.90;;;;;;5093431;28;20414;-73
2021/11/09 02:03:06;;;;;;;30.58;7.85;;;9.40;99.90;;;;;;5091933;28;20837;-73
2021/11/09 02:05:32;;;;;;;31.95;7.97;;;9.40;99.90;;;;;;5096453;28;20404;-72
2021/11/09 02:08:02;;;;;;;41.38;8.68;;;9.40;99.90;;;;;;5099398;28;20404;-73
2021/11/09 02:10:32;;;;;;;34.17;8.30;;;9.40;99.90;;;;;;5103704;28;20436;-73
2021/11/09 02:12:58;;;;;;;36.97;8.90;;;9.40;99.90;;;;;;5084968;28;20939;-72
2021/11/09 02:15:27;;;;;;;28.60;7.70;;;9.40;99.90;;;;;;5079892;28;20404;-73
2021/11/09 02:17:53;;;;;;;29.77;7.90;;;9.40;99.90;;;;;;5101123;28;20420;-70
2021/11/09 02:20:21;;;;;;;33.30;8.43;;;9.40;99.90;;;;;;5100089;28;20415;-72
2021/11/09 02:22:48;;;;;;;33.15;8.10;;;9.40;99.90;;;;;;5101649;28;20420;-71
2021/11/09 02:25:16;;;;;;;31.47;8.17;;;9.40;99.90;;;;;;5103346;28;20400;-71
2021/11/09 02:27:42;;;;;;;32.33;8.03;;;9.40;99.90;;;;;;5102266;28;20418;-73
2021/11/09 02:30:11;;;;;;;35.35;8.55;;;9.40;99.90;;;;;;5098750;28;20410;-73
2021/11/09 02:32:37;;;;;;;32.63;8.13;;;9.30;99.90;;;;;;5098296;28;21153;-71
2021/11/09 02:35:04;;;;;;;31.90;8.40;;;9.30;99.90;;;;;;5097108;28;20412;-72
2021/11/09 02:37:30;;;;;;;29.38;8.73;;;9.40;99.90;;;;;;5096964;28;21217;-73
2021/11/09 02:39:57;;;;;;;33.33;8.77;;;9.30;99.90;;;;;;5103437;28;20464;-72
2021/11/09 02:42:24;;;;;;;32.00;8.43;;;9.30;99.90;;;;;;5084226;28;20412;-73
2021/11/09 02:45:01;;;;;;;29.38;9.15;;;9.30;99.90;;;;;;5101579;28;20411;-73
2021/11/09 02:47:30;;;;;;;33.88;8.65;;;9.30;99.90;;;;;;5099585;28;20429;-72
2021/11/09 02:50:14;;;;;;;32.22;9.25;;;9.30;99.90;;;;;;5093518;28;20414;-72
2021/11/09 02:52:49;;;;;;;32.05;8.70;;;9.30;99.90;;;;;;5098264;28;20409;-73
2021/11/09 02:55:18;;;;;;;29.77;8.68;;;9.20;99.90;;;;;;5097555;28;20410;-72
2021/11/09 02:57:57;;;;;;;33.05;9.93;;;9.20;99.90;;;;;;5100313;28;20422;-71
2021/11/09 03:00:28;;;;;;;31.20;9.17;;;9.30;99.90;;;;;;5101243;28;20404;-72
2021/11/09 03:03:00;;;;;;;33.97;9.68;;;9.20;99.90;;;;;;5100641;28;20872;-71
2021/11/09 03:05:30;;;;;;;35.37;9.83;;;9.20;99.90;;;;;;5102776;28;20416;-71
2021/11/09 03:08:02;;;;;;;37.10;10.40;;;9.30;99.90;;;;;;5101947;28;20416;-71
2021/11/09 03:10:32;;;;;;;32.90;10.15;;;9.20;99.90;;;;;;5085924;28;20426;-73
2021/11/09 03:12:58;;;;;;;31.75;10.15;;;9.20;99.90;;;;;;5099062;28;20487;-72
2021/11/09 03:15:27;;;;;;;33.65;10.18;;;9.20;99.90;;;;;;5101794;28;20420;-71
2021/11/09 03:17:58;;;;;;;34.85;10.00;;;9.20;99.90;;;;;;5096230;28;20436;-73
2021/11/09 03:20:29;;;;;;;31.13;10.48;;;9.20;99.90;;;;;;5101877;28;20491;-72
2021/11/09 03:45:09;;;;;;;37.80;11.45;;;9.10;99.90;;;;;;5104566;28;20408;-71
2021/11/09 03:47:41;;;;;;;37.80;12.05;;;9.00;99.90;;;;;;5102807;28;20522;-72
2021/11/09 03:50:09;;;;;;;40.80;12.15;;;9.10;99.90;;;;;;5105213;28;20411;-73
2021/11/09 03:52:42;;;;;;;38.87;11.40;;;9.00;99.90;;;;;;5103888;28;20501;-73
2021/11/09 03:55:11;;;;;;;36.92;11.95;;;9.00;99.90;;;;;;5105375;28;20420;-73
2021/11/09 03:58:25;;;;;;;40.30;12.48;;;9.00;99.90;;;;;;5100640;28;20910;-71
2021/11/09 04:00:59;;;;;;;35.60;12.25;;;9.00;99.90;;;;;;5087184;28;20504;-73
2021/11/09 04:08:53;;;;;;;39.90;13.05;;;8.90;99.90;;;;;;5103317;28;20407;-71
2021/11/09 04:11:26;;;;;;;39.08;12.40;;;9.00;99.90;;;;;;5102911;28;20414;-73
2021/11/09 04:16:42;;;;;;;41.10;13.15;;;8.90;99.90;;;;;;5100799;28;20396;-71
2021/11/09 04:24:47;;;;;;;39.45;12.70;;;8.90;99.90;;;;;;5104310;28;20489;-73
2021/11/09 04:27:27;;;;;;;39.92;12.98;;;8.90;99.90;;;;;;5102438;28;20495;-72
2021/11/09 05:09:41;;;;;;;50.15;16.88;;;8.90;99.90;;;;;;5095278;28;20451;-72
2021/11/09 05:12:07;;;;;;;54.45;17.48;;;8.90;99.90;;;;;;5100430;28;20418;-71
2021/11/09 05:14:33;;;;;;;55.72;18.05;;;8.90;99.90;;;;;;5103522;28;20412;-73
2021/11/09 05:17:01;;;;;;;54.47;18.55;;;8.90;99.90;;;;;;5085302;28;20501;-72
2021/11/09 05:19:27;;;;;;;53.88;19.85;;;8.90;99.90;;;;;;5103325;28;20408;-71
2021/11/09 05:21:53;;;;;;;54.85;19.65;;;8.90;99.90;;;;;;5085194;28;21166;-72
2021/11/09 05:24:18;;;;;;;63.15;21.48;;;8.90;99.90;;;;;;5103836;28;20485;-72
2021/11/09 05:26:44;;;;;;;62.47;21.60;;;8.90;99.90;;;;;;5099903;28;20407;-74
2021/11/09 05:29:11;;;;;;;66.47;21.67;;;8.90;99.90;;;;;;5098413;28;20411;-72
2021/11/09 05:31:37;;;;;;;63.90;22.33;;;8.90;99.90;;;;;;5094447;28;20769;-71
2021/11/09 05:34:04;;;;;;;64.32;21.73;;;8.90;99.90;;;;;;5097477;28;20447;-72
2021/11/09 05:36:38;;;;;;;62.42;21.02;;;8.90;99.90;;;;;;5099482;28;20409;-73
2021/11/09 05:39:16;;;;;;;59.25;20.55;;;9.00;99.90;;;;;;5103767;28;20412;-73
2021/11/09 05:41:43;;;;;;;54.13;20.25;;;9.10;99.90;;;;;;5079869;28;20455;-73
2021/11/09 05:44:09;;;;;;;59.05;19.90;;;9.10;99.90;;;;;;5080666;28;20485;-74
2021/11/09 05:46:36;;;;;;;62.50;20.52;;;9.20;99.90;;;;;;5097104;28;20408;-73
2021/11/09 05:49:03;;;;;;;53.53;19.90;;;9.20;99.90;;;;;;5103344;28;20449;-73
2021/11/09 05:51:29;;;;;;;51.83;18.35;;;9.20;99.90;;;;;;5091653;28;20425;-73
2021/11/09 05:53:55;;;;;;;54.78;18.63;;;9.30;99.90;;;;;;5098505;28;20414;-73
2021/11/09 05:56:21;;;;;;;46.28;17.02;;;9.30;99.90;;;;;;5082711;28;20531;-73
2021/11/09 05:58:46;;;;;;;54.97;17.80;;;9.40;99.90;;;;;;5081015;28;20886;-73
2021/11/09 06:01:12;;;;;;;53.30;17.17;;;9.40;99.90;;;;;;5096221;28;20533;-73
2021/11/09 06:03:38;;;;;;;51.80;16.70;;;9.40;99.90;;;;;;5093282;28;20408;-74
2021/11/09 06:06:03;;;;;;;51.80;16.08;;;9.40;99.90;;;;;;5089977;28;20420;-73
2021/11/09 06:08:29;;;;;;;41.20;15.80;;;9.40;99.90;;;;;;5082586;28;20420;-73
2021/11/09 06:10:55;;;;;;;46.60;15.52;;;9.40;99.90;;;;;;5104098;28;20415;-73
2021/11/09 06:13:23;;;;;;;44.47;15.80;;;9.40;99.90;;;;;;5093541;28;20507;-72
2021/11/09 06:15:49;;;;;;;44.17;15.90;;;9.50;99.90;;;;;;5077207;28;20405;-74
2021/11/09 06:18:14;;;;;;;49.35;16.13;;;9.50;99.90;;;;;;5077542;28;20511;-73
2021/11/09 06:20:40;;;;;;;47.70;15.63;;;9.50;99.90;;;;;;5102151;28;20417;-74
2021/11/09 06:23:06;;;;;;;44.72;15.63;;;9.50;99.90;;;;;;5078809;28;20496;-72
2021/11/09 06:25:32;;;;;;;47.10;15.33;;;9.50;99.90;;;;;;5098691;28;20916;-74
2021/11/09 06:27:57;;;;;;;50.05;15.65;;;9.60;99.90;;;;;;5092257;28;20413;-73
2021/11/09 06:30:23;;;;;;;42.60;15.00;;;9.60;99.90;;;;;;5095022;28;20496;-74
2021/11/09 06:32:50;;;;;;;43.70;14.90;;;9.60;99.90;;;;;;5099392;28;20408;-71
2021/11/09 06:35:16;;;;;;;43.63;14.80;;;9.60;99.90;;;;;;5086016;28;20888;-73
2021/11/09 06:37:42;;;;;;;48.10;14.75;;;9.70;99.90;;;;;;5089493;28;20456;-73
2021/11/09 06:40:08;;;;;;;48.53;14.57;;;9.70;99.90;;;;;;5079722;28;20428;-72
2021/11/09 06:42:35;;;;;;;46.63;14.63;;;9.70;99.90;;;;;;5097117;28;20407;-74
2021/11/09 06:45:00;;;;;;;44.80;14.27;;;9.70;99.90;;;;;;5084714;28;20408;-74
2021/11/09 06:47:26;;;;;;;40.67;13.80;;;9.70;99.90;;;;;;5100864;28;20419;-73
2021/11/09 06:49:52;;;;;;;41.37;13.77;;;9.70;99.90;;;;;;5073033;28;20646;-72
2021/11/09 06:52:19;;;;;;;40.42;13.80;;;9.70;99.90;;;;;;5093524;28;20425;-72
2021/11/09 06:54:44;;;;;;;44.05;14.13;;;9.80;99.90;;;;;;5097169;28;20708;-73
2021/11/09 06:57:11;;;;;;;43.50;14.32;;;9.80;99.90;;;;;;5101173;28;20511;-72
2021/11/09 06:59:38;;;;;;;46.03;14.00;;;9.80;99.90;;;;;;5099012;28;20419;-73
2021/11/09 07:02:04;;;;;;;40.55;13.90;;;9.80;99.90;;;;;;5099034;28;20416;-72
2021/11/09 07:04:30;;;;;;;43.70;14.48;;;9.80;99.90;;;;;;5068149;28;20470;-71
2021/11/09 07:06:57;;;;;;;47.47;15.27;;;9.80;99.90;;;;;;5104805;28;21176;-72
2021/11/09 07:09:23;;;;;;;44.50;15.43;;;9.80;99.90;;;;;;5090742;28;20902;-70
2021/11/09 07:11:49;;;;;;;46.75;16.48;;;9.90;99.90;;;;;;5102951;28;20471;-72
2021/11/09 07:14:16;;;;;;;47.67;16.23;;;9.80;99.90;;;;;;5104679;28;20871;-71
2021/11/09 07:16:44;;;;;;;50.93;16.70;;;9.90;99.90;;;;;;5087548;28;20403;-72
2021/11/09 07:19:11;;;;;;;49.50;17.67;;;9.90;99.90;;;;;;5104440;28;21248;-72
2021/11/09 07:21:36;;;;;;;51.17;17.88;;;9.90;99.90;;;;;;5095889;28;20396;-70
2021/11/09 07:24:02;;;;;;;54.60;18.00;;;9.90;99.90;;;;;;5105521;28;20427;-70
2021/11/09 07:26:29;;;;;;;54.92;18.77;;;10.00;99.90;;;;;;5084382;28;21313;-70
2021/11/09 07:28:56;;;;;;;54.45;18.65;;;10.00;99.90;;;;;;5102411;28;20417;-70
2021/11/09 07:31:24;;;;;;;54.80;19.42;;;10.00;99.90;;;;;;5087268;28;21102;-70
2021/11/09 07:33:51;;;;;;;59.53;19.48;;;10.00;99.90;;;;;;5106484;28;20415;-70
2021/11/09 07:36:17;;;;;;;55.67;19.63;;;10.10;99.90;;;;;;5083020;28;21271;-69
2021/11/09 07:38:43;;;;;;;60.40;19.93;;;10.10;99.90;;;;;;5087735;28;20464;-72
2021/11/09 07:41:09;;;;;;;57.30;19.92;;;10.10;99.90;;;;;;5082970;28;20459;-73
2021/11/09 07:43:35;;;;;;;59.55;21.17;;;10.10;99.90;;;;;;5098166;28;20420;-73
2021/11/09 07:46:00;;;;;;;57.55;20.30;;;10.20;99.90;;;;;;5099430;28;20401;-73
2021/11/09 07:48:27;;;;;;;67.07;21.00;;;10.10;99.90;;;;;;5083694;28;20408;-71
2021/11/09 07:50:52;;;;;;;68.97;21.52;;;10.10;99.90;;;;;;5106675;28;20415;-73
2021/11/09 07:53:19;;;;;;;64.47;21.35;;;10.20;99.90;;;;;;5100808;28;20428;-71
2021/11/09 07:56:20;;;;;;;66.82;22.15;;;10.20;99.90;;;;;;5103707;28;20416;-76
2021/11/09 07:58:55;;;;;;;64.85;22.67;;;10.20;99.90;;;;;;5093396;28;20510;-75
2021/11/09 08:01:37;;;;;;;66.50;22.67;;;10.20;99.90;;;;;;5100586;28;20409;-72
2021/11/09 08:04:12;;;;;;;68.82;22.20;;;10.20;99.90;;;;;;5097801;28;20432;-74
2021/11/09 08:06:48;;;;;;;71.43;22.38;;;10.20;99.90;;;;;;5084101;28;20447;-74
2021/11/09 08:09:25;;;;;;;69.53;23.20;;;10.20;99.90;;;;;;5100609;28;20403;-75
2021/11/09 08:11:51;;;;;;;68.95;22.50;;;10.20;99.90;;;;;;5084548;28;20415;-74
2021/11/09 08:14:18;;;;;;;70.57;23.45;;;10.20;99.90;;;;;;5096041;28;20412;-75
2021/11/09 08:16:44;;;;;;;73.90;23.02;;;10.20;99.90;;;;;;5098364;28;20424;-76
2021/11/09 08:19:11;;;;;;;76.97;25.55;;;10.20;99.90;;;;;;5070596;28;20565;-75
2021/11/09 08:21:37;;;;;;;75.38;25.05;;;10.20;99.90;;;;;;5097357;28;20427;-74
2021/11/09 08:24:04;;;;;;;83.97;25.97;;;10.20;99.90;;;;;;5094442;28;20437;-74
2021/11/09 08:26:30;;;;;;;77.43;24.25;;;10.20;99.90;;;;;;5062730;28;20406;-73
2021/11/09 08:29:03;;;;;;;75.65;26.40;;;10.20;99.90;;;;;;5098999;28;20427;-74
2021/11/09 08:31:29;;;;;;;78.55;26.55;;;10.20;99.90;;;;;;5080840;28;20442;-76
2021/11/09 08:33:55;;;;;;;66.30;23.42;;;10.30;99.90;;;;;;5099357;28;20193;-75
2021/11/09 08:36:28;;;;;;;75.40;23.52;;;9.90;99.90;;;;;;5104495;28;20276;-74
2021/11/09 08:38:56;;;;;;;78.88;23.17;;;9.70;99.90;;;;;;5101530;28;20720;-73
2021/11/09 08:41:26;;;;;;;63.33;22.00;;;9.50;99.90;;;;;;5103928;28;20311;-75
2021/11/09 08:46:57;;;;;;;67.28;23.42;;;9.30;99.90;;;;;;5057598;28;20208;-74
2021/11/09 08:49:25;;;;;;;69.57;22.98;;;9.30;99.90;;;;;;5105599;28;20217;-76
2021/11/09 08:51:52;;;;;;;73.97;24.33;;;9.30;99.90;;;;;;5102903;28;20189;-74
2021/11/09 08:54:21;;;;;;;71.13;24.98;;;9.30;99.90;;;;;;5088344;28;20203;-76
2021/11/09 09:04:48;;;;;;;70.60;26.23;;;9.40;99.90;;;;;;5081009;28;20189;-75
2021/11/09 09:07:14;;;;;;;77.72;25.50;;;9.50;99.90;;;;;;5086988;28;20229;-75
2021/11/09 09:09:39;;;;;;;70.80;25.83;;;9.50;99.90;;;;;;5102020;28;20177;-74
2021/11/09 09:12:05;;;;;;;73.63;27.13;;;9.50;99.90;;;;;;5092132;28;20182;-75
2021/11/09 09:14:33;;;;;;;87.57;26.52;;;9.50;99.90;;;;;;5105195;28;20181;-74
2021/11/09 09:17:00;;;;;;;71.05;26.40;;;9.60;99.90;;;;;;5087176;28;20193;-74
2021/11/09 09:19:32;;;;;;;61.63;26.48;;;9.50;99.90;;;;;;5098829;28;20728;-74
2021/11/09 09:22:10;;;;;;;78.50;25.70;;;9.60;99.90;;;;;;5103022;28;20276;-75
2021/11/09 09:54:30;;;;;;;71.38;25.67;;;9.80;99.90;;;;;;5098710;28;20222;-74
2021/11/09 09:56:58;;;;;;;75.10;27.55;;;9.90;99.90;;;;;;5097202;28;20641;-74
2021/11/09 09:59:29;;;;;;;75.90;26.33;;;9.90;99.90;;;;;;5099708;28;20269;-74
2021/11/09 10:02:24;;;;;;;67.60;27.20;;;9.90;99.90;;;;;;5101522;28;20655;-74
2021/11/09 10:05:12;;;;;;;85.30;31.02;;;10.00;99.90;;;;;;5102985;28;20457;-75
2021/11/09 10:07:41;;;;;;;82.70;31.13;;;10.60;99.90;;;;;;5095711;28;20479;-75
2021/11/09 10:10:10;;;;;;;83.10;31.83;;;11.10;99.90;;;;;;5071904;28;20436;-74
2021/11/09 10:12:37;;;;;;;81.45;31.23;;;11.30;99.90;;;;;;5101999;28;20452;-74
2021/11/09 10:15:14;;;;;;;75.28;30.15;;;11.40;99.90;;;;;;5072488;28;20452;-75
2021/11/09 10:17:44;;;;;;;78.88;31.23;;;11.50;99.90;;;;;;5083312;28;20435;-75
2021/11/09 10:20:23;;;;;;;83.53;30.35;;;11.60;99.90;;;;;;5069398;28;20400;-75
2021/11/09 10:22:53;;;;;;;84.80;31.05;;;11.60;99.90;;;;;;5082160;28;20423;-74
2021/11/09 10:25:20;;;;;;;81.82;31.25;;;11.70;99.90;;;;;;5091163;28;20489;-75
2021/11/09 10:27:50;;;;;;;82.33;30.30;;;11.70;99.90;;;;;;5097554;28;20408;-75
2021/11/09 10:30:21;;;;;;;79.45;29.58;;;11.80;99.90;;;;;;5078659;28;20444;-75
2021/11/09 10:32:47;;;;;;;75.47;30.10;;;11.80;99.90;;;;;;5098638;28;20472;-75
2021/11/09 10:35:14;;;;;;;80.88;29.15;;;11.90;99.90;;;;;;5099497;28;20409;-74
2021/11/09 10:37:46;;;;;;;73.37;28.90;;;11.90;99.90;;;;;;5066683;28;20427;-75
2021/11/09 10:40:22;;;;;;;73.93;27.80;;;11.90;99.90;;;;;;5082902;28;20408;-73
2021/11/09 10:42:50;;;;;;;71.03;27.80;;;11.90;99.90;;;;;;5082852;28;20434;-75
2021/11/09 10:45:24;;;;;;;69.63;27.37;;;11.90;99.90;;;;;;5100968;28;20423;-75
2021/11/09 10:47:59;;;;;;;75.10;25.77;;;12.00;99.90;;;;;;5092712;28;20408;-75
2021/11/09 10:50:45;;;;;;;70.47;26.27;;;12.10;99.90;;;;;;5074928;28;20804;-75
2021/11/09 10:53:21;;;;;;;63.35;24.88;;;12.10;99.90;;;;;;5098827;28;20429;-75
2021/11/09 11:06:17;;;;;;;67.28;25.17;;;12.40;99.90;;;;;;5099543;28;20461;-75
2021/11/09 11:08:45;;;;;;;63.58;24.70;;;12.40;99.90;;;;;;5099629;28;20932;-74
2021/11/09 11:11:31;;;;;;;63.45;24.08;;;12.40;99.90;;;;;;5101581;28;20412;-74
2021/11/09 11:14:17;;;;;;;64.13;24.55;;;12.50;99.90;;;;;;5102529;28;20399;-75
2021/11/09 11:17:05;;;;;;;71.38;26.27;;;12.50;99.90;;;;;;5093731;28;20443;-75
2021/11/09 11:19:46;;;;;;;65.47;25.92;;;12.50;99.90;;;;;;5098561;28;20802;-75
2021/11/09 11:22:15;;;;;;;62.20;25.85;;;12.50;99.90;;;;;;5082546;28;20471;-75
2021/11/09 11:24:42;;;;;;;66.78;25.33;;;12.50;99.90;;;;;;5085391;28;21120;-74
2021/11/09 11:27:09;;;;;;;64.60;25.13;;;12.50;99.90;;;;;;5079493;28;20412;-74
2021/11/09 11:29:37;;;;;;;70.18;25.83;;;12.60;99.90;;;;;;5083378;28;20408;-74
2021/11/09 11:32:05;;;;;;;64.10;25.98;;;12.60;99.90;;;;;;5091211;28;20416;-75
2021/11/09 11:34:30;;;;;;;64.43;26.00;;;12.60;99.90;;;;;;5091183;28;21161;-74
2021/11/09 11:36:57;;;;;;;62.72;25.52;;;12.60;99.90;;;;;;5085438;28;20444;-75
2021/11/09 11:39:26;;;;;;;74.25;27.50;;;12.60;99.90;;;;;;5080835;28;20418;-74
2021/11/09 11:42:02;;;;;;;68.25;26.58;;;12.60;99.90;;;;;;5106540;28;20400;-74
2021/11/09 11:44:33;;;;;;;66.03;26.52;;;12.60;99.90;;;;;;5103512;28;20471;-72
2021/11/09 11:47:12;;;;;;;64.55;27.08;;;12.50;99.90;;;;;;5104641;28;20400;-71
2021/11/09 11:49:40;;;;;;;59.20;27.08;;;12.50;99.90;;;;;;5105106;28;20411;-74
2021/11/09 11:52:24;;;;;;;65.97;27.40;;;12.50;99.90;;;;;;5105394;28;20418;-73
2021/11/09 11:54:52;;;;;;;70.80;28.23;;;12.50;99.90;;;;;;5099647;28;20482;-72
2021/11/09 11:58:08;;;;;;;70.25;28.38;;;12.50;99.90;;;;;;5088401;28;20408;-72
2021/11/09 12:01:01;;;;;;;72.90;30.02;;;12.50;99.90;;;;;;5083593;28;20420;-74
2021/11/09 12:03:27;;;;;;;75.60;30.02;;;12.50;99.90;;;;;;5098421;28;20482;-75
2021/11/09 12:06:00;;;;;;;77.38;29.77;;;12.50;99.90;;;;;;5084372;28;20420;-75
2021/11/09 12:08:42;;;;;;;73.35;30.40;;;12.50;99.90;;;;;;5080121;28;20464;-75
2021/11/09 12:11:35;;;;;;;76.55;29.90;;;12.40;99.90;;;;;;5080843;28;20820;-72
2021/11/09 12:14:07;;;;;;;70.45;30.88;;;12.40;99.90;;;;;;5104518;28;20412;-74
2021/11/09 12:17:08;;;;;;;79.72;30.95;;;12.40;99.90;;;;;;5099942;28;20412;-77
2021/11/09 12:19:34;;;;;;;75.63;32.10;;;12.40;99.90;;;;;;5100910;28;20506;-76
2021/11/09 12:22:12;;;;;;;72.85;31.58;;;12.40;99.90;;;;;;5101348;28;20903;-74
2021/11/09 12:25:05;;;;;;;73.60;31.50;;;12.40;99.90;;;;;;5089039;28;20500;-73
2021/11/09 12:27:49;;;;;;;71.80;31.25;;;12.50;99.90;;;;;;5083330;28;20411;-69
2021/11/09 12:30:36;;;;;;;72.57;30.08;;;12.50;99.90;;;;;;5104139;28;20400;-73
2021/11/09 12:33:14;;;;;;;69.70;30.52;;;12.50;99.90;;;;;;5103180;28;20469;-72
2021/11/09 12:35:47;;;;;;;71.13;31.45;;;12.60;99.90;;;;;;5102500;28;20417;-73
2021/11/09 12:38:17;;;;;;;68.35;30.20;;;12.50;99.90;;;;;;5098219;28;20444;-73
2021/11/09 12:40:47;;;;;;;71.95;31.17;;;12.50;99.90;;;;;;5097753;28;20824;-71
2021/11/09 12:43:39;;;;;;;67.75;30.85;;;12.50;99.90;;;;;;5081872;28;20416;-71
2021/11/09 12:46:22;;;;;;;66.32;30.73;;;12.60;99.90;;;;;;5103402;28;20436;-72
2021/11/09 12:48:55;;;;;;;69.65;31.55;;;12.60;99.90;;;;;;5103362;28;20408;-72
2021/11/09 12:51:30;;;;;;;69.47;31.05;;;12.50;99.90;;;;;;5097765;28;20813;-71
2021/11/09 12:54:01;;;;;;;70.80;31.27;;;12.50;99.90;;;;;;5102425;28;20408;-72
2021/11/09 12:56:47;;;;;;;71.03;31.80;;;12.50;99.90;;;;;;5100914;28;20405;-71
2021/11/09 12:59:28;;;;;;;69.10;31.05;;;12.50;99.90;;;;;;5084504;28;20417;-72
2021/11/09 13:04:31;;;;;;;65.25;30.80;;;12.50;99.90;;;;;;5102746;28;20416;-72
2021/11/09 13:09:45;;;;;;;65.13;31.83;;;12.50;99.90;;;;;;5095242;28;20405;-73
2021/11/09 13:12:24;;;;;;;68.30;31.23;;;12.50;99.90;;;;;;5080009;28;20406;-72
2021/11/09 13:14:51;;;;;;;66.10;31.10;;;12.50;99.90;;;;;;5104419;28;20400;-73
2021/11/09 13:17:42;;;;;;;71.93;31.80;;;12.50;99.90;;;;;;5097823;28;20459;-74
2021/11/09 13:22:59;;;;;;;67.88;30.75;;;12.60;99.90;;;;;;5100703;28;20425;-73
2021/11/09 13:25:37;;;;;;;63.38;31.58;;;12.70;99.90;;;;;;5103455;28;20392;-72
2021/11/09 13:28:15;;;;;;;61.25;31.30;;;12.70;99.90;;;;;;5100688;28;21236;-72
2021/11/09 13:30:43;;;;;;;65.38;30.30;;;12.70;99.90;;;;;;5105086;28;20468;-72
2021/11/09 13:33:09;;;;;;;61.33;30.02;;;12.70;99.90;;;;;;5095730;28;21391;-72
2021/11/09 13:35:40;;;;;;;66.10;30.93;;;12.70;99.90;;;;;;5097587;28;20732;-72
2021/11/09 13:38:24;;;;;;;66.07;30.58;;;12.70;99.90;;;;;;5100201;28;20477;-72
2021/11/09 13:40:52;;;;;;;62.53;31.25;;;12.70;99.90;;;;;;5105596;28;20396;-72
2021/11/09 13:43:23;;;;;;;64.22;30.88;;;12.70;99.90;;;;;;5100404;28;20665;-72
2021/11/09 13:46:04;;;;;;;60.45;30.88;;;12.70;99.90;;;;;;5085319;28;20392;-72
2021/11/09 13:48:30;;;;;;;67.28;31.65;;;12.70;99.90;;;;;;5094849;28;20752;-72
2021/11/09 13:51:02;;;;;;;64.30;31.42;;;12.70;99.90;;;;;;5106211;28;20399;-73
2021/11/09 13:53:31;;;;;;;56.13;30.65;;;12.70;99.90;;;;;;5102956;28;20448;-72
2021/11/09 13:55:57;;;;;;;61.85;31.00;;;12.70;99.90;;;;;;5078472;28;20407;-72
2021/11/09 13:58:23;;;;;;;62.38;31.52;;;12.70;99.90;;;;;;5086953;28;20498;-72
2021/11/09 14:00:57;;;;;;;65.70;31.10;;;12.70;99.90;;;;;;5099557;28;20451;-72
2021/11/09 14:14:23;;;;;;;63.70;32.10;;;12.70;99.90;;;;;;5101242;28;20830;-72
2021/11/09 14:16:58;;;;;;;57.33;30.25;;;12.70;99.90;;;;;;5082395;28;21301;-72
2021/11/09 14:19:31;;;;;;;65.03;31.67;;;12.70;99.90;;;;;;5103039;28;20416;-72
2021/11/09 14:21:58;;;;;;;63.00;30.38;;;12.70;99.90;;;;;;5098801;28;20412;-72
2021/11/09 14:24:29;;;;;;;58.97;30.70;;;12.70;99.90;;;;;;5103777;28;20464;-73
2021/11/09 14:27:03;;;;;;;66.30;31.33;;;12.70;99.90;;;;;;5103523;28;20427;-72
2021/11/09 14:29:33;;;;;;;68.05;30.90;;;12.80;99.90;;;;;;5095280;28;20416;-72
2021/11/09 14:32:03;;;;;;;70.30;32.03;;;12.80;99.90;;;;;;5066554;28;20413;-72
2021/11/09 14:34:29;;;;;;;71.27;32.40;;;12.80;99.90;;;;;;5094439;28;20417;-72
2021/11/09 14:37:21;;;;;;;68.07;31.42;;;12.80;99.90;;;;;;5093253;28;20439;-72
2021/11/09 14:40:12;;;;;;;75.30;32.22;;;12.80;99.90;;;;;;5099173;28;20503;-72
2021/11/09 14:42:59;;;;;;;73.05;32.05;;;12.80;99.90;;;;;;5098234;28;20418;-72
2021/11/09 14:48:15;;;;;;;78.50;33.33;;;12.80;99.90;;;;;;5098379;28;20483;-73
2021/11/09 14:51:00;;;;;;;75.82;32.88;;;12.80;99.90;;;;;;5081148;28;20407;-72
2021/11/09 14:53:43;;;;;;;77.18;32.97;;;12.80;99.90;;;;;;5098517;28;20412;-72
2021/11/09 14:56:14;;;;;;;75.15;33.78;;;12.80;99.90;;;;;;5085071;28;20447;-73
2021/11/09 14:58:44;;;;;;;82.50;34.42;;;12.80;99.90;;;;;;5082602;28;20430;-74
2021/11/09 15:01:24;;;;;;;85.03;34.90;;;12.80;99.90;;;;;;5095066;28;20426;-71
2021/11/09 15:04:19;;;;;;;86.28;36.20;;;12.90;99.90;;;;;;5079504;28;20427;-71
2021/11/09 15:12:44;;;;;;;88.20;37.03;;;12.80;99.90;;;;;;5079821;28;20413;-72
2021/11/09 15:26:16;;;;;;;96.67;38.30;;;12.70;99.90;;;;;;5099730;28;20440;-71
2021/11/09 15:28:47;;;;;;;100.37;39.57;;;12.70;99.90;;;;;;5090137;28;20404;-72
2021/11/09 15:31:27;;;;;;;105.43;39.47;;;12.70;99.90;;;;;;5093097;28;20460;-71
2021/11/09 15:39:08;;;;;;;97.93;36.90;;;12.70;99.90;;;;;;5105712;28;20435;-72
2021/11/09 15:41:33;;;;;;;101.50;36.47;;;12.70;99.90;;;;;;5105141;28;20404;-71
2021/11/09 15:43:59;;;;;;;100.00;35.60;;;12.70;99.90;;;;;;5106969;28;20416;-72